White, Georgia
Current Conditions -  °F | °C
As of 2:53 PM on Sunday 23 Nov 2014 (Local Time) from KVPC Reporting Station
Overcast Overcast  
Wind Chill: 51°   Ceiling: 900
Heat Index: 51°   Visibility: 10mi
Dew Point: 49°   Wind: 12mph
Humidity: 92%   Direction: 110°ESE
Pressure: 29.72"   Gusts: 25mph
Location:  34.28°N, 84.75°W
Report Text: KVPC 231953Z AUTO 11010G22KT 10SM BKN009 BKN015 OVC034 11/09 A2972 RMK AO2 RAE43 SLP057 P0008 T01060094
Loading
Personal Weather Stations






























Interactive Weather Map New forecast layout! Learn more

10-Day Weather Forecast

Advertisements
Track Severe Weather on mobile